sensor_id;sensor_type;location;lat;lon;timestamp;P1;durP1;ratioP1;P2;durP2;ratioP2
32094;SDS011;18608;53.688;10.748;2023-02-23T00:01:32;13.60;;;4.43;;
32094;SDS011;18608;53.688;10.748;2023-02-23T00:03:58;10.67;;;4.57;;
32094;SDS011;18608;53.688;10.748;2023-02-23T00:06:24;14.53;;;5.30;;
32094;SDS011;18608;53.688;10.748;2023-02-23T00:08:51;15.33;;;4.30;;
32094;SDS011;18608;53.688;10.748;2023-02-23T00:11:18;17.70;;;4.37;;
32094;SDS011;18608;53.688;10.748;2023-02-23T00:13:45;21.40;;;4.90;;
32094;SDS011;18608;53.688;10.748;2023-02-23T00:16:15;10.63;;;4.70;;
32094;SDS011;18608;53.688;10.748;2023-02-23T00:18:43;9.67;;;3.60;;
32094;SDS011;18608;53.688;10.748;2023-02-23T00:21:16;16.17;;;4.50;;
32094;SDS011;18608;53.688;10.748;2023-02-23T00:23:47;10.77;;;4.03;;
32094;SDS011;18608;53.688;10.748;2023-02-23T00:26:15;15.97;;;5.40;;
32094;SDS011;18608;53.688;10.748;2023-02-23T00:28:45;12.10;;;5.10;;
32094;SDS011;18608;53.688;10.748;2023-02-23T00:31:12;11.40;;;4.50;;
32094;SDS011;18608;53.688;10.748;2023-02-23T00:33:38;8.10;;;4.00;;
32094;SDS011;18608;53.688;10.748;2023-02-23T00:36:05;17.13;;;5.13;;
32094;SDS011;18608;53.688;10.748;2023-02-23T00:38:33;25.37;;;4.10;;
32094;SDS011;18608;53.688;10.748;2023-02-23T00:41:10;10.33;;;3.77;;
32094;SDS011;18608;53.688;10.748;2023-02-23T00:43:37;7.13;;;5.27;;
32094;SDS011;18608;53.688;10.748;2023-02-23T00:46:17;29.57;;;5.07;;
32094;SDS011;18608;53.688;10.748;2023-02-23T00:48:45;10.87;;;4.13;;
32094;SDS011;18608;53.688;10.748;2023-02-23T00:51:11;10.77;;;3.93;;
32094;SDS011;18608;53.688;10.748;2023-02-23T00:53:37;16.23;;;4.40;;
32094;SDS011;18608;53.688;10.748;2023-02-23T00:56:03;13.53;;;5.53;;
32094;SDS011;18608;53.688;10.748;2023-02-23T00:58:30;14.57;;;4.40;;
32094;SDS011;18608;53.688;10.748;2023-02-23T01:00:56;15.50;;;4.73;;
32094;SDS011;18608;53.688;10.748;2023-02-23T01:03:23;16.50;;;6.40;;
32094;SDS011;18608;53.688;10.748;2023-02-23T01:05:53;17.50;;;4.80;;
32094;SDS011;18608;53.688;10.748;2023-02-23T01:08:23;12.90;;;4.70;;
32094;SDS011;18608;53.688;10.748;2023-02-23T01:10:48;29.73;;;5.47;;
32094;SDS011;18608;53.688;10.748;2023-02-23T01:13:18;25.80;;;6.50;;
32094;SDS011;18608;53.688;10.748;2023-02-23T01:15:45;12.80;;;5.80;;
32094;SDS011;18608;53.688;10.748;2023-02-23T01:18:12;16.93;;;4.90;;
32094;SDS011;18608;53.688;10.748;2023-02-23T01:20:39;13.90;;;4.30;;
32094;SDS011;18608;53.688;10.748;2023-02-23T01:23:05;17.13;;;5.23;;
32094;SDS011;18608;53.688;10.748;2023-02-23T01:25:32;14.23;;;4.60;;
32094;SDS011;18608;53.688;10.748;2023-02-23T01:27:58;15.13;;;5.00;;
32094;SDS011;18608;53.688;10.748;2023-02-23T01:30:24;13.83;;;4.80;;
32094;SDS011;18608;53.688;10.748;2023-02-23T01:32:50;15.80;;;5.23;;
32094;SDS011;18608;53.688;10.748;2023-02-23T01:35:16;6.50;;;4.60;;
32094;SDS011;18608;53.688;10.748;2023-02-23T01:37:42;17.83;;;6.00;;
32094;SDS011;18608;53.688;10.748;2023-02-23T01:40:11;16.60;;;5.10;;
32094;SDS011;18608;53.688;10.748;2023-02-23T01:42:40;18.90;;;6.00;;
32094;SDS011;18608;53.688;10.748;2023-02-23T01:47:51;9.53;;;4.77;;
32094;SDS011;18608;53.688;10.748;2023-02-23T01:50:19;21.50;;;6.50;;
32094;SDS011;18608;53.688;10.748;2023-02-23T01:52:48;15.07;;;4.80;;
32094;SDS011;18608;53.688;10.748;2023-02-23T01:55:16;6.93;;;5.00;;
32094;SDS011;18608;53.688;10.748;2023-02-23T01:57:48;15.13;;;5.67;;
32094;SDS011;18608;53.688;10.748;2023-02-23T02:00:17;21.47;;;5.50;;
32094;SDS011;18608;53.688;10.748;2023-02-23T02:02:44;15.63;;;4.70;;
32094;SDS011;18608;53.688;10.748;2023-02-23T02:05:12;7.53;;;4.40;;
32094;SDS011;18608;53.688;10.748;2023-02-23T02:07:43;15.47;;;4.73;;
32094;SDS011;18608;53.688;10.748;2023-02-23T02:10:13;14.53;;;6.23;;
32094;SDS011;18608;53.688;10.748;2023-02-23T02:12:39;9.77;;;4.17;;
32094;SDS011;18608;53.688;10.748;2023-02-23T02:15:08;11.97;;;5.23;;
32094;SDS011;18608;53.688;10.748;2023-02-23T02:48:48;12.73;;;4.90;;
32094;SDS011;18608;53.688;10.748;2023-02-23T02:51:26;19.23;;;4.97;;
32094;SDS011;18608;53.688;10.748;2023-02-23T02:56:56;19.40;;;5.10;;
32094;SDS011;18608;53.688;10.748;2023-02-23T02:59:24;17.40;;;6.57;;
32094;SDS011;18608;53.688;10.748;2023-02-23T03:02:16;17.90;;;6.80;;
32094;SDS011;18608;53.688;10.748;2023-02-23T03:05:12;11.03;;;5.70;;
32094;SDS011;18608;53.688;10.748;2023-02-23T03:11:05;20.13;;;5.30;;
32094;SDS011;18608;53.688;10.748;2023-02-23T03:14:04;22.10;;;5.30;;
32094;SDS011;18608;53.688;10.748;2023-02-23T03:19:55;7.40;;;4.93;;
32094;SDS011;18608;53.688;10.748;2023-02-23T03:22:57;13.23;;;5.17;;
32094;SDS011;18608;53.688;10.748;2023-02-23T03:26:34;13.50;;;4.67;;
32094;SDS011;18608;53.688;10.748;2023-02-23T03:29:13;13.63;;;6.67;;
32094;SDS011;18608;53.688;10.748;2023-02-23T03:32:08;13.00;;;5.83;;
32094;SDS011;18608;53.688;10.748;2023-02-23T03:35:12;26.40;;;5.97;;
32094;SDS011;18608;53.688;10.748;2023-02-23T03:40:53;6.60;;;4.13;;
32094;SDS011;18608;53.688;10.748;2023-02-23T03:43:40;12.60;;;4.90;;
32094;SDS011;18608;53.688;10.748;2023-02-23T03:46:33;12.47;;;5.27;;
32094;SDS011;18608;53.688;10.748;2023-02-23T03:49:18;11.83;;;4.77;;
32094;SDS011;18608;53.688;10.748;2023-02-23T03:52:06;11.60;;;6.13;;
32094;SDS011;18608;53.688;10.748;2023-02-23T03:54:58;11.00;;;5.10;;
32094;SDS011;18608;53.688;10.748;2023-02-23T03:57:49;16.10;;;5.27;;
32094;SDS011;18608;53.688;10.748;2023-02-23T04:00:38;17.27;;;6.40;;
32094;SDS011;18608;53.688;10.748;2023-02-23T04:03:25;8.30;;;4.50;;
32094;SDS011;18608;53.688;10.748;2023-02-23T04:06:13;10.30;;;4.63;;
32094;SDS011;18608;53.688;10.748;2023-02-23T04:09:00;13.67;;;5.13;;
32094;SDS011;18608;53.688;10.748;2023-02-23T04:11:51;14.20;;;4.70;;
32094;SDS011;18608;53.688;10.748;2023-02-23T04:14:52;22.37;;;5.70;;
32094;SDS011;18608;53.688;10.748;2023-02-23T04:17:25;11.53;;;4.57;;
32094;SDS011;18608;53.688;10.748;2023-02-23T04:19:53;13.33;;;5.73;;
32094;SDS011;18608;53.688;10.748;2023-02-23T04:22:20;20.23;;;5.43;;
32094;SDS011;18608;53.688;10.748;2023-02-23T04:24:47;9.03;;;4.27;;
32094;SDS011;18608;53.688;10.748;2023-02-23T04:27:13;16.67;;;4.47;;
32094;SDS011;18608;53.688;10.748;2023-02-23T04:29:39;11.20;;;5.00;;
32094;SDS011;18608;53.688;10.748;2023-02-23T04:32:05;17.77;;;5.50;;
32094;SDS011;18608;53.688;10.748;2023-02-23T04:34:36;12.00;;;5.70;;
32094;SDS011;18608;53.688;10.748;2023-02-23T04:37:02;12.53;;;4.57;;
32094;SDS011;18608;53.688;10.748;2023-02-23T04:39:27;9.00;;;4.83;;
32094;SDS011;18608;53.688;10.748;2023-02-23T04:41:54;10.37;;;5.20;;
32094;SDS011;18608;53.688;10.748;2023-02-23T04:44:19;21.60;;;6.03;;
32094;SDS011;18608;53.688;10.748;2023-02-23T04:46:45;16.63;;;5.97;;
32094;SDS011;18608;53.688;10.748;2023-02-23T04:49:11;12.93;;;5.43;;
32094;SDS011;18608;53.688;10.748;2023-02-23T04:51:36;12.40;;;5.10;;
32094;SDS011;18608;53.688;10.748;2023-02-23T04:54:02;13.93;;;5.53;;
32094;SDS011;18608;53.688;10.748;2023-02-23T04:56:29;20.33;;;6.27;;
32094;SDS011;18608;53.688;10.748;2023-02-23T04:58:55;15.60;;;5.50;;
32094;SDS011;18608;53.688;10.748;2023-02-23T05:01:21;13.47;;;5.67;;
32094;SDS011;18608;53.688;10.748;2023-02-23T05:03:47;9.07;;;4.97;;
32094;SDS011;18608;53.688;10.748;2023-02-23T05:06:17;10.67;;;5.37;;
32094;SDS011;18608;53.688;10.748;2023-02-23T05:08:43;9.53;;;5.03;;
32094;SDS011;18608;53.688;10.748;2023-02-23T05:11:09;14.27;;;5.93;;
32094;SDS011;18608;53.688;10.748;2023-02-23T05:13:35;12.43;;;5.57;;
32094;SDS011;18608;53.688;10.748;2023-02-23T05:16:01;8.77;;;5.70;;
32094;SDS011;18608;53.688;10.748;2023-02-23T05:18:27;8.53;;;4.50;;
32094;SDS011;18608;53.688;10.748;2023-02-23T05:20:53;12.23;;;5.87;;
32094;SDS011;18608;53.688;10.748;2023-02-23T05:23:25;14.13;;;5.07;;
32094;SDS011;18608;53.688;10.748;2023-02-23T05:25:50;11.43;;;6.73;;
32094;SDS011;18608;53.688;10.748;2023-02-23T05:28:16;21.80;;;6.30;;
32094;SDS011;18608;53.688;10.748;2023-02-23T05:30:41;13.73;;;4.47;;
32094;SDS011;18608;53.688;10.748;2023-02-23T05:33:07;9.37;;;5.30;;
32094;SDS011;18608;53.688;10.748;2023-02-23T05:35:33;18.10;;;5.10;;
32094;SDS011;18608;53.688;10.748;2023-02-23T05:37:58;12.70;;;5.80;;
32094;SDS011;18608;53.688;10.748;2023-02-23T05:40:24;15.80;;;5.97;;
32094;SDS011;18608;53.688;10.748;2023-02-23T05:42:49;17.00;;;7.07;;
32094;SDS011;18608;53.688;10.748;2023-02-23T05:45:18;18.57;;;7.40;;
32094;SDS011;18608;53.688;10.748;2023-02-23T05:47:44;11.90;;;6.20;;
32094;SDS011;18608;53.688;10.748;2023-02-23T05:50:10;14.60;;;6.27;;
32094;SDS011;18608;53.688;10.748;2023-02-23T05:52:36;24.10;;;6.93;;
32094;SDS011;18608;53.688;10.748;2023-02-23T05:55:05;18.60;;;7.20;;
32094;SDS011;18608;53.688;10.748;2023-02-23T05:57:32;16.90;;;6.30;;
32094;SDS011;18608;53.688;10.748;2023-02-23T05:59:57;23.40;;;7.13;;
32094;SDS011;18608;53.688;10.748;2023-02-23T06:02:23;16.93;;;6.90;;
32094;SDS011;18608;53.688;10.748;2023-02-23T06:04:48;15.20;;;6.10;;
32094;SDS011;18608;53.688;10.748;2023-02-23T06:07:15;18.13;;;7.80;;
32094;SDS011;18608;53.688;10.748;2023-02-23T06:09:40;23.17;;;9.60;;
32094;SDS011;18608;53.688;10.748;2023-02-23T06:12:06;30.20;;;7.53;;
32094;SDS011;18608;53.688;10.748;2023-02-23T06:14:32;16.13;;;7.50;;
32094;SDS011;18608;53.688;10.748;2023-02-23T06:16:59;16.33;;;6.27;;
32094;SDS011;18608;53.688;10.748;2023-02-23T06:19:25;16.83;;;6.90;;
32094;SDS011;18608;53.688;10.748;2023-02-23T06:21:50;28.53;;;8.53;;
32094;SDS011;18608;53.688;10.748;2023-02-23T06:24:17;28.53;;;7.57;;
32094;SDS011;18608;53.688;10.748;2023-02-23T06:26:43;26.73;;;8.33;;
32094;SDS011;18608;53.688;10.748;2023-02-23T06:29:09;28.20;;;9.00;;
32094;SDS011;18608;53.688;10.748;2023-02-23T06:31:36;24.33;;;8.53;;
32094;SDS011;18608;53.688;10.748;2023-02-23T06:34:02;29.63;;;11.30;;
32094;SDS011;18608;53.688;10.748;2023-02-23T06:36:27;23.03;;;10.23;;
32094;SDS011;18608;53.688;10.748;2023-02-23T06:38:57;27.87;;;8.90;;
32094;SDS011;18608;53.688;10.748;2023-02-23T06:41:23;43.87;;;10.00;;
32094;SDS011;18608;53.688;10.748;2023-02-23T06:43:49;30.30;;;9.90;;
32094;SDS011;18608;53.688;10.748;2023-02-23T06:46:16;30.50;;;10.60;;
32094;SDS011;18608;53.688;10.748;2023-02-23T06:48:42;35.17;;;10.10;;
32094;SDS011;18608;53.688;10.748;2023-02-23T06:51:08;32.03;;;12.60;;
32094;SDS011;18608;53.688;10.748;2023-02-23T06:53:34;34.67;;;10.63;;
32094;SDS011;18608;53.688;10.748;2023-02-23T06:56:00;30.57;;;10.53;;
32094;SDS011;18608;53.688;10.748;2023-02-23T06:58:25;36.90;;;10.37;;
32094;SDS011;18608;53.688;10.748;2023-02-23T07:00:53;33.67;;;10.33;;
32094;SDS011;18608;53.688;10.748;2023-02-23T07:03:23;34.53;;;11.70;;
32094;SDS011;18608;53.688;10.748;2023-02-23T07:05:49;47.93;;;11.77;;
32094;SDS011;18608;53.688;10.748;2023-02-23T07:08:16;37.47;;;13.20;;
32094;SDS011;18608;53.688;10.748;2023-02-23T07:10:42;32.90;;;11.67;;
32094;SDS011;18608;53.688;10.748;2023-02-23T07:13:08;29.23;;;11.03;;
32094;SDS011;18608;53.688;10.748;2023-02-23T07:15:35;44.77;;;11.80;;
32094;SDS011;18608;53.688;10.748;2023-02-23T07:18:01;51.03;;;12.67;;
32094;SDS011;18608;53.688;10.748;2023-02-23T07:20:27;33.87;;;11.50;;
32094;SDS011;18608;53.688;10.748;2023-02-23T07:22:52;32.97;;;12.20;;
32094;SDS011;18608;53.688;10.748;2023-02-23T07:25:19;34.53;;;12.17;;
32094;SDS011;18608;53.688;10.748;2023-02-23T07:27:45;38.63;;;11.27;;
32094;SDS011;18608;53.688;10.748;2023-02-23T07:30:11;30.03;;;11.43;;
32094;SDS011;18608;53.688;10.748;2023-02-23T07:32:37;40.27;;;13.13;;
32094;SDS011;18608;53.688;10.748;2023-02-23T07:35:03;38.37;;;13.40;;
32094;SDS011;18608;53.688;10.748;2023-02-23T07:37:30;39.53;;;13.60;;
32094;SDS011;18608;53.688;10.748;2023-02-23T07:39:56;48.53;;;12.83;;
32094;SDS011;18608;53.688;10.748;2023-02-23T07:42:21;45.40;;;14.43;;
32094;SDS011;18608;53.688;10.748;2023-02-23T07:44:47;33.47;;;12.83;;
32094;SDS011;18608;53.688;10.748;2023-02-23T07:47:13;37.03;;;12.53;;
32094;SDS011;18608;53.688;10.748;2023-02-23T07:49:38;34.40;;;13.67;;
32094;SDS011;18608;53.688;10.748;2023-02-23T07:52:04;37.30;;;14.57;;
32094;SDS011;18608;53.688;10.748;2023-02-23T07:54:30;37.23;;;13.30;;
32094;SDS011;18608;53.688;10.748;2023-02-23T07:56:55;35.13;;;13.10;;
32094;SDS011;18608;53.688;10.748;2023-02-23T07:59:21;40.10;;;14.43;;
32094;SDS011;18608;53.688;10.748;2023-02-23T08:01:46;45.47;;;17.30;;
32094;SDS011;18608;53.688;10.748;2023-02-23T08:04:12;37.40;;;15.33;;
32094;SDS011;18608;53.688;10.748;2023-02-23T08:06:38;60.37;;;15.97;;
32094;SDS011;18608;53.688;10.748;2023-02-23T08:09:04;46.83;;;14.90;;
32094;SDS011;18608;53.688;10.748;2023-02-23T08:11:30;41.93;;;13.40;;
32094;SDS011;18608;53.688;10.748;2023-02-23T08:13:56;50.40;;;15.73;;
32094;SDS011;18608;53.688;10.748;2023-02-23T08:16:33;43.37;;;14.37;;
32094;SDS011;18608;53.688;10.748;2023-02-23T08:18:59;49.50;;;15.40;;
32094;SDS011;18608;53.688;10.748;2023-02-23T08:21:25;48.37;;;17.13;;
32094;SDS011;18608;53.688;10.748;2023-02-23T08:23:53;74.67;;;19.33;;
32094;SDS011;18608;53.688;10.748;2023-02-23T08:26:19;50.73;;;17.30;;
32094;SDS011;18608;53.688;10.748;2023-02-23T08:28:45;46.13;;;17.43;;
32094;SDS011;18608;53.688;10.748;2023-02-23T08:31:11;73.20;;;19.90;;
32094;SDS011;18608;53.688;10.748;2023-02-23T08:33:38;75.50;;;20.87;;
32094;SDS011;18608;53.688;10.748;2023-02-23T08:36:05;59.80;;;19.77;;
32094;SDS011;18608;53.688;10.748;2023-02-23T08:38:32;50.93;;;19.23;;
32094;SDS011;18608;53.688;10.748;2023-02-23T08:41:00;51.30;;;18.43;;
32094;SDS011;18608;53.688;10.748;2023-02-23T08:43:27;66.93;;;20.80;;
32094;SDS011;18608;53.688;10.748;2023-02-23T08:45:52;64.93;;;19.90;;
32094;SDS011;18608;53.688;10.748;2023-02-23T08:48:18;72.27;;;22.73;;
32094;SDS011;18608;53.688;10.748;2023-02-23T08:50:46;75.83;;;22.13;;
32094;SDS011;18608;53.688;10.748;2023-02-23T08:53:13;62.43;;;21.93;;
32094;SDS011;18608;53.688;10.748;2023-02-23T08:55:39;66.20;;;23.13;;
32094;SDS011;18608;53.688;10.748;2023-02-23T08:58:09;58.43;;;23.73;;
32094;SDS011;18608;53.688;10.748;2023-02-23T09:00:38;71.53;;;22.50;;
32094;SDS011;18608;53.688;10.748;2023-02-23T09:03:04;61.73;;;23.13;;
32094;SDS011;18608;53.688;10.748;2023-02-23T09:05:31;71.93;;;21.87;;
32094;SDS011;18608;53.688;10.748;2023-02-23T09:07:57;68.40;;;23.23;;
32094;SDS011;18608;53.688;10.748;2023-02-23T09:10:23;70.63;;;25.13;;
32094;SDS011;18608;53.688;10.748;2023-02-23T09:12:51;78.53;;;23.53;;
32094;SDS011;18608;53.688;10.748;2023-02-23T09:15:18;60.20;;;22.63;;
32094;SDS011;18608;53.688;10.748;2023-02-23T09:17:44;65.90;;;22.83;;
32094;SDS011;18608;53.688;10.748;2023-02-23T09:20:11;69.00;;;23.07;;
32094;SDS011;18608;53.688;10.748;2023-02-23T09:22:40;75.47;;;24.07;;
32094;SDS011;18608;53.688;10.748;2023-02-23T09:25:13;63.47;;;23.70;;
32094;SDS011;18608;53.688;10.748;2023-02-23T09:27:46;71.73;;;23.73;;
32094;SDS011;18608;53.688;10.748;2023-02-23T09:30:11;59.00;;;23.07;;
32094;SDS011;18608;53.688;10.748;2023-02-23T09:32:42;67.20;;;22.43;;
32094;SDS011;18608;53.688;10.748;2023-02-23T09:35:09;71.67;;;25.07;;
32094;SDS011;18608;53.688;10.748;2023-02-23T09:37:35;74.97;;;24.83;;
32094;SDS011;18608;53.688;10.748;2023-02-23T09:40:01;85.90;;;25.33;;
32094;SDS011;18608;53.688;10.748;2023-02-23T09:42:31;81.40;;;25.90;;
32094;SDS011;18608;53.688;10.748;2023-02-23T09:47:43;79.97;;;27.00;;
32094;SDS011;18608;53.688;10.748;2023-02-23T09:50:17;93.00;;;29.47;;
32094;SDS011;18608;53.688;10.748;2023-02-23T09:52:47;90.07;;;27.03;;
32094;SDS011;18608;53.688;10.748;2023-02-23T09:55:17;105.80;;;30.13;;
32094;SDS011;18608;53.688;10.748;2023-02-23T09:57:44;77.10;;;26.17;;
32094;SDS011;18608;53.688;10.748;2023-02-23T10:00:20;85.60;;;28.40;;
32094;SDS011;18608;53.688;10.748;2023-02-23T10:05:57;103.63;;;29.97;;
32094;SDS011;18608;53.688;10.748;2023-02-23T10:11:07;75.07;;;27.80;;
32094;SDS011;18608;53.688;10.748;2023-02-23T10:16:48;63.23;;;26.27;;
32094;SDS011;18608;53.688;10.748;2023-02-23T10:22:16;75.43;;;25.20;;
32094;SDS011;18608;53.688;10.748;2023-02-23T10:24:47;75.43;;;25.47;;
32094;SDS011;18608;53.688;10.748;2023-02-23T10:27:21;63.67;;;23.60;;
32094;SDS011;18608;53.688;10.748;2023-02-23T10:29:53;59.47;;;22.70;;
32094;SDS011;18608;53.688;10.748;2023-02-23T10:34:46;66.57;;;24.80;;
32094;SDS011;18608;53.688;10.748;2023-02-23T10:37:17;62.03;;;22.53;;
32094;SDS011;18608;53.688;10.748;2023-02-23T10:39:44;53.77;;;21.83;;
32094;SDS011;18608;53.688;10.748;2023-02-23T10:42:14;54.53;;;20.53;;
32094;SDS011;18608;53.688;10.748;2023-02-23T10:44:44;38.47;;;18.00;;
32094;SDS011;18608;53.688;10.748;2023-02-23T10:47:14;43.60;;;20.97;;
32094;SDS011;18608;53.688;10.748;2023-02-23T10:49:44;44.37;;;19.70;;
32094;SDS011;18608;53.688;10.748;2023-02-23T10:52:13;32.10;;;17.63;;
32094;SDS011;18608;53.688;10.748;2023-02-23T10:54:59;35.23;;;17.83;;
32094;SDS011;18608;53.688;10.748;2023-02-23T10:57:30;44.70;;;18.33;;
32094;SDS011;18608;53.688;10.748;2023-02-23T11:00:06;43.67;;;18.80;;
32094;SDS011;18608;53.688;10.748;2023-02-23T11:02:35;43.87;;;21.10;;
32094;SDS011;18608;53.688;10.748;2023-02-23T11:05:02;38.60;;;19.97;;
32094;SDS011;18608;53.688;10.748;2023-02-23T11:07:30;49.97;;;20.60;;
32094;SDS011;18608;53.688;10.748;2023-02-23T11:09:57;49.67;;;21.37;;
32094;SDS011;18608;53.688;10.748;2023-02-23T11:17:57;96.20;;;33.00;;
32094;SDS011;18608;53.688;10.748;2023-02-23T11:22:55;92.60;;;33.43;;
32094;SDS011;18608;53.688;10.748;2023-02-23T11:27:54;104.80;;;37.17;;
32094;SDS011;18608;53.688;10.748;2023-02-23T11:30:25;117.07;;;40.90;;
32094;SDS011;18608;53.688;10.748;2023-02-23T11:33:00;115.27;;;35.83;;
32094;SDS011;18608;53.688;10.748;2023-02-23T11:35:34;119.50;;;38.37;;
32094;SDS011;18608;53.688;10.748;2023-02-23T11:38:13;115.73;;;38.03;;
32094;SDS011;18608;53.688;10.748;2023-02-23T11:40:40;141.00;;;42.03;;
32094;SDS011;18608;53.688;10.748;2023-02-23T11:43:07;112.47;;;37.23;;
32094;SDS011;18608;53.688;10.748;2023-02-23T11:45:48;120.13;;;36.20;;
32094;SDS011;18608;53.688;10.748;2023-02-23T11:48:30;119.77;;;38.50;;
32094;SDS011;18608;53.688;10.748;2023-02-23T11:50:58;121.17;;;38.13;;
32094;SDS011;18608;53.688;10.748;2023-02-23T11:53:30;112.07;;;37.33;;
32094;SDS011;18608;53.688;10.748;2023-02-23T11:56:01;105.37;;;38.00;;
32094;SDS011;18608;53.688;10.748;2023-02-23T11:58:38;106.73;;;36.47;;
32094;SDS011;18608;53.688;10.748;2023-02-23T12:01:05;153.60;;;40.63;;
32094;SDS011;18608;53.688;10.748;2023-02-23T12:03:36;110.00;;;37.63;;
32094;SDS011;18608;53.688;10.748;2023-02-23T12:06:08;133.57;;;39.60;;
32094;SDS011;18608;53.688;10.748;2023-02-23T12:08:42;131.80;;;36.47;;
32094;SDS011;18608;53.688;10.748;2023-02-23T12:11:20;113.33;;;34.43;;
32094;SDS011;18608;53.688;10.748;2023-02-23T12:13:51;113.03;;;35.37;;
32094;SDS011;18608;53.688;10.748;2023-02-23T12:16:26;108.03;;;35.40;;
32094;SDS011;18608;53.688;10.748;2023-02-23T12:19:07;117.93;;;36.57;;
32094;SDS011;18608;53.688;10.748;2023-02-23T12:38:11;106.10;;;34.20;;
32094;SDS011;18608;53.688;10.748;2023-02-23T12:40:51;99.50;;;34.90;;
32094;SDS011;18608;53.688;10.748;2023-02-23T12:46:25;92.87;;;34.37;;
32094;SDS011;18608;53.688;10.748;2023-02-23T12:49:15;87.23;;;32.70;;
32094;SDS011;18608;53.688;10.748;2023-02-23T12:51:50;105.77;;;33.77;;
32094;SDS011;18608;53.688;10.748;2023-02-23T12:54:19;106.87;;;34.97;;
32094;SDS011;18608;53.688;10.748;2023-02-23T13:02:46;111.30;;;35.00;;
32094;SDS011;18608;53.688;10.748;2023-02-23T13:05:25;103.63;;;33.50;;
32094;SDS011;18608;53.688;10.748;2023-02-23T13:08:10;108.97;;;31.50;;
32094;SDS011;18608;53.688;10.748;2023-02-23T13:10:54;91.90;;;31.90;;
32094;SDS011;18608;53.688;10.748;2023-02-23T13:13:43;98.20;;;31.77;;
32094;SDS011;18608;53.688;10.748;2023-02-23T13:16:26;99.43;;;33.40;;
32094;SDS011;18608;53.688;10.748;2023-02-23T13:20:08;119.20;;;34.60;;
32094;SDS011;18608;53.688;10.748;2023-02-23T13:25:10;95.70;;;32.07;;
32094;SDS011;18608;53.688;10.748;2023-02-23T13:27:56;100.07;;;32.87;;
32094;SDS011;18608;53.688;10.748;2023-02-23T13:30:24;99.53;;;33.00;;
32094;SDS011;18608;53.688;10.748;2023-02-23T13:32:50;89.60;;;30.77;;
32094;SDS011;18608;53.688;10.748;2023-02-23T13:35:17;112.93;;;34.20;;
32094;SDS011;18608;53.688;10.748;2023-02-23T13:37:53;86.30;;;31.23;;
32094;SDS011;18608;53.688;10.748;2023-02-23T13:43:17;92.90;;;31.50;;
32094;SDS011;18608;53.688;10.748;2023-02-23T13:45:49;91.83;;;33.77;;
32094;SDS011;18608;53.688;10.748;2023-02-23T13:51:02;97.37;;;31.83;;
32094;SDS011;18608;53.688;10.748;2023-02-23T13:53:44;94.27;;;31.40;;
32094;SDS011;18608;53.688;10.748;2023-02-23T13:56:15;92.57;;;29.73;;
32094;SDS011;18608;53.688;10.748;2023-02-23T13:58:44;87.27;;;29.17;;
32094;SDS011;18608;53.688;10.748;2023-02-23T14:01:23;96.10;;;30.60;;
32094;SDS011;18608;53.688;10.748;2023-02-23T14:04:01;82.40;;;29.90;;
32094;SDS011;18608;53.688;10.748;2023-02-23T14:06:32;80.07;;;29.53;;
32094;SDS011;18608;53.688;10.748;2023-02-23T14:09:06;90.90;;;29.10;;
32094;SDS011;18608;53.688;10.748;2023-02-23T14:14:08;82.00;;;30.43;;
32094;SDS011;18608;53.688;10.748;2023-02-23T14:16:38;94.87;;;30.00;;
32094;SDS011;18608;53.688;10.748;2023-02-23T14:29:30;85.67;;;26.87;;
32094;SDS011;18608;53.688;10.748;2023-02-23T14:34:47;74.17;;;29.10;;
32094;SDS011;18608;53.688;10.748;2023-02-23T14:37:36;69.27;;;28.00;;
32094;SDS011;18608;53.688;10.748;2023-02-23T14:40:16;76.33;;;29.17;;
32094;SDS011;18608;53.688;10.748;2023-02-23T14:42:50;78.13;;;28.40;;
32094;SDS011;18608;53.688;10.748;2023-02-23T14:45:27;81.37;;;28.60;;
32094;SDS011;18608;53.688;10.748;2023-02-23T14:47:56;77.80;;;26.40;;
32094;SDS011;18608;53.688;10.748;2023-02-23T14:50:29;76.33;;;25.87;;
32094;SDS011;18608;53.688;10.748;2023-02-23T14:52:57;64.67;;;24.10;;
32094;SDS011;18608;53.688;10.748;2023-02-23T14:55:34;64.63;;;25.23;;
32094;SDS011;18608;53.688;10.748;2023-02-23T15:00:50;72.53;;;26.70;;
32094;SDS011;18608;53.688;10.748;2023-02-23T15:03:16;78.03;;;27.17;;
32094;SDS011;18608;53.688;10.748;2023-02-23T15:08:17;68.20;;;25.67;;
32094;SDS011;18608;53.688;10.748;2023-02-23T15:10:48;67.53;;;26.40;;
32094;SDS011;18608;53.688;10.748;2023-02-23T15:13:35;65.00;;;24.00;;
32094;SDS011;18608;53.688;10.748;2023-02-23T15:16:06;60.97;;;24.40;;
32094;SDS011;18608;53.688;10.748;2023-02-23T15:18:46;66.77;;;24.13;;
32094;SDS011;18608;53.688;10.748;2023-02-23T15:21:16;63.90;;;25.87;;
32094;SDS011;18608;53.688;10.748;2023-02-23T15:23:48;65.13;;;23.33;;
32094;SDS011;18608;53.688;10.748;2023-02-23T15:26:25;55.33;;;21.87;;
32094;SDS011;18608;53.688;10.748;2023-02-23T15:31:35;53.10;;;20.90;;
32094;SDS011;18608;53.688;10.748;2023-02-23T15:34:06;66.77;;;24.07;;
32094;SDS011;18608;53.688;10.748;2023-02-23T15:36:35;53.73;;;20.40;;
32094;SDS011;18608;53.688;10.748;2023-02-23T15:39:04;58.20;;;19.90;;
32094;SDS011;18608;53.688;10.748;2023-02-23T15:41:36;51.17;;;21.40;;
32094;SDS011;18608;53.688;10.748;2023-02-23T15:46:57;72.47;;;22.30;;
32094;SDS011;18608;53.688;10.748;2023-02-23T15:49:24;54.97;;;22.40;;
32094;SDS011;18608;53.688;10.748;2023-02-23T15:51:58;53.93;;;22.33;;
32094;SDS011;18608;53.688;10.748;2023-02-23T15:54:34;62.60;;;21.50;;
32094;SDS011;18608;53.688;10.748;2023-02-23T15:57:13;66.33;;;21.10;;
32094;SDS011;18608;53.688;10.748;2023-02-23T15:59:44;61.43;;;22.40;;
32094;SDS011;18608;53.688;10.748;2023-02-23T16:02:15;51.03;;;21.40;;
32094;SDS011;18608;53.688;10.748;2023-02-23T16:04:47;61.10;;;20.63;;
32094;SDS011;18608;53.688;10.748;2023-02-23T16:12:27;55.27;;;21.13;;
32094;SDS011;18608;53.688;10.748;2023-02-23T16:14:57;60.00;;;21.27;;
32094;SDS011;18608;53.688;10.748;2023-02-23T16:20:15;62.97;;;22.30;;
32094;SDS011;18608;53.688;10.748;2023-02-23T16:22:50;51.30;;;19.43;;
32094;SDS011;18608;53.688;10.748;2023-02-23T16:25:19;37.30;;;17.67;;
32094;SDS011;18608;53.688;10.748;2023-02-23T16:27:46;49.47;;;19.27;;
32094;SDS011;18608;53.688;10.748;2023-02-23T16:32:48;54.13;;;19.30;;
32094;SDS011;18608;53.688;10.748;2023-02-23T16:35:38;52.20;;;18.27;;
32094;SDS011;18608;53.688;10.748;2023-02-23T16:38:13;50.97;;;17.73;;
32094;SDS011;18608;53.688;10.748;2023-02-23T16:40:46;45.23;;;16.00;;
32094;SDS011;18608;53.688;10.748;2023-02-23T16:43:12;55.63;;;20.27;;
32094;SDS011;18608;53.688;10.748;2023-02-23T16:45:39;55.80;;;18.40;;
32094;SDS011;18608;53.688;10.748;2023-02-23T16:48:13;53.90;;;21.23;;
32094;SDS011;18608;53.688;10.748;2023-02-23T16:50:39;46.80;;;18.60;;
32094;SDS011;18608;53.688;10.748;2023-02-23T16:53:06;39.43;;;16.50;;
32094;SDS011;18608;53.688;10.748;2023-02-23T16:55:39;51.03;;;20.37;;
32094;SDS011;18608;53.688;10.748;2023-02-23T16:58:09;32.70;;;15.63;;
32094;SDS011;18608;53.688;10.748;2023-02-23T17:00:40;54.60;;;15.97;;